Time;durP1;ratioP1;P1;durP2;ratioP2;P2;SDS_P1;SDS_P2;PMS_P1;PMS_P2;Temp;Humidity;BMP_temperature;BMP_pressure;BME280_temperature;BME280_humidity;BME280_pressure;Samples;Min_cycle;Max_cycle;Signal;HPM_P1;HPM_P2
2024/02/22 00:03:09;;;;;;;72.47;68.55;;;7.50;99.90;;;;;;12467825;28;20052;-86
2024/02/22 00:09:12;;;;;;;74.50;70.60;;;7.50;99.90;;;;;;12465827;28;20054;-89
2024/02/22 00:15:13;;;;;;;75.03;70.82;;;7.50;99.90;;;;;;12472076;28;20064;-87
2024/02/22 00:21:17;;;;;;;75.03;71.03;;;7.50;99.90;;;;;;12472957;28;20065;-88
2024/02/22 00:27:20;;;;;;;78.43;74.35;;;7.50;99.90;;;;;;12463206;28;20060;-87
2024/02/22 00:33:22;;;;;;;77.67;73.57;;;7.50;99.90;;;;;;12476823;28;20049;-88
2024/02/22 00:39:24;;;;;;;78.28;74.05;;;7.50;99.90;;;;;;12484541;28;20486;-87
2024/02/22 00:45:26;;;;;;;71.05;67.32;;;7.50;99.90;;;;;;12474666;28;20395;-87
2024/02/22 00:51:28;;;;;;;87.55;83.00;;;7.60;99.90;;;;;;12485514;28;20505;-87
2024/02/22 00:57:30;;;;;;;74.78;70.95;;;7.60;99.90;;;;;;12480193;28;20041;-88
2024/02/22 01:03:32;;;;;;;73.22;69.43;;;7.70;99.90;;;;;;12451502;28;20054;-87
2024/02/22 01:09:36;;;;;;;74.38;70.57;;;7.70;99.90;;;;;;12432886;28;20054;-90
2024/02/22 01:15:38;;;;;;;80.32;76.22;;;7.70;99.90;;;;;;12434636;28;20058;-85
2024/02/22 01:21:40;;;;;;;75.70;71.90;;;7.70;99.90;;;;;;12413913;28;20095;-88
2024/02/22 01:27:42;;;;;;;74.70;70.85;;;7.80;99.90;;;;;;12432571;28;20077;-85
2024/02/22 01:33:44;;;;;;;71.10;67.50;;;7.80;99.90;;;;;;12431345;28;20499;-90
2024/02/22 01:39:46;;;;;;;74.22;70.32;;;7.80;99.90;;;;;;12443294;28;20046;-86
2024/02/22 01:45:48;;;;;;;78.72;74.75;;;7.90;99.90;;;;;;12441054;28;20050;-88
2024/02/22 01:51:56;;;;;;;79.10;75.10;;;7.80;99.90;;;;;;12421560;28;20538;-87
2024/02/22 01:57:58;;;;;;;79.88;75.70;;;7.80;99.90;;;;;;12428150;28;20053;-87
2024/02/22 02:04:00;;;;;;;81.97;77.85;;;7.80;99.90;;;;;;12465927;28;20037;-86
2024/02/22 02:10:09;;;;;;;83.43;79.22;;;7.80;99.90;;;;;;12458264;28;20041;-87
2024/02/22 02:16:11;;;;;;;88.10;83.80;;;7.70;99.90;;;;;;12443262;28;20426;-87
2024/02/22 02:22:28;;;;;;;89.30;84.90;;;7.70;99.90;;;;;;12471997;28;20050;-86
2024/02/22 02:28:30;;;;;;;83.93;79.53;;;7.70;99.90;;;;;;12459539;28;20054;-88
2024/02/22 02:34:32;;;;;;;80.93;76.93;;;7.70;99.90;;;;;;12478543;28;20077;-88
2024/02/22 02:40:35;;;;;;;79.20;75.30;;;7.70;99.90;;;;;;12467902;28;20053;-88
2024/02/22 02:46:38;;;;;;;80.20;76.20;;;7.70;99.90;;;;;;12464931;28;20049;-89
2024/02/22 02:52:41;;;;;;;82.15;78.15;;;7.80;99.90;;;;;;12455994;28;20046;-86
2024/02/22 02:58:43;;;;;;;82.07;78.07;;;7.80;99.90;;;;;;12468042;28;20072;-86
2024/02/22 03:04:45;;;;;;;79.60;75.70;;;7.80;99.90;;;;;;12460779;28;20050;-88
2024/02/22 03:10:47;;;;;;;78.10;74.30;;;7.90;99.90;;;;;;12463323;28;20041;-88
2024/02/22 03:16:49;;;;;;;81.00;76.95;;;7.80;99.90;;;;;;12464205;28;20049;-85
2024/02/22 03:22:50;;;;;;;81.03;77.03;;;7.90;99.90;;;;;;12477656;28;20065;-86
2024/02/22 03:28:52;;;;;;;84.72;80.60;;;7.90;99.90;;;;;;12464107;28;20134;-86
2024/02/22 03:34:54;;;;;;;86.97;82.75;;;7.90;99.90;;;;;;12463231;28;20687;-86
2024/02/22 03:40:56;;;;;;;92.95;88.45;;;7.90;99.90;;;;;;12461282;28;20429;-88
2024/02/22 03:46:58;;;;;;;91.43;86.90;;;7.90;99.90;;;;;;12448719;28;20053;-87
2024/02/22 03:53:00;;;;;;;90.28;85.88;;;8.00;99.90;;;;;;12465817;28;20049;-87
2024/02/22 03:59:03;;;;;;;93.50;88.93;;;8.00;99.90;;;;;;12469485;28;20745;-87
2024/02/22 04:05:06;;;;;;;95.53;90.93;;;8.00;99.90;;;;;;12464402;28;20068;-87
2024/02/22 04:11:08;;;;;;;97.72;92.95;;;8.00;99.90;;;;;;12470364;28;20109;-86
2024/02/22 04:17:10;;;;;;;101.35;96.38;;;8.00;99.90;;;;;;12481285;28;20056;-89
2024/02/22 04:23:12;;;;;;;90.55;86.15;;;8.10;99.90;;;;;;12481097;28;20076;-89
2024/02/22 04:29:15;;;;;;;93.22;88.68;;;8.10;99.90;;;;;;12457154;28;20057;-86
2024/02/22 04:35:18;;;;;;;93.15;88.63;;;8.10;99.90;;;;;;12476502;28;20054;-87
2024/02/22 04:41:23;;;;;;;96.13;91.43;;;8.10;99.90;;;;;;12462388;28;20559;-86
2024/02/22 04:47:25;;;;;;;95.90;91.20;;;8.10;99.90;;;;;;12487520;28;20065;-85
2024/02/22 04:53:28;;;;;;;99.57;94.68;;;8.20;99.90;;;;;;12479684;28;20057;-86
2024/02/22 04:59:30;;;;;;;92.20;87.60;;;8.20;99.90;;;;;;12471329;28;20049;-86
2024/02/22 05:05:31;;;;;;;90.95;86.45;;;8.20;99.90;;;;;;12472711;28;20041;-84
2024/02/22 05:11:34;;;;;;;89.10;84.60;;;8.20;99.90;;;;;;12488179;28;20053;-88
2024/02/22 05:17:39;;;;;;;99.38;94.38;;;8.20;99.90;;;;;;12494114;28;20041;-86
2024/02/22 05:23:41;;;;;;;95.70;90.82;;;8.30;99.90;;;;;;12468834;28;20063;-85
2024/02/22 05:29:43;;;;;;;99.78;94.60;;;8.30;99.90;;;;;;12470143;28;20127;-84
2024/02/22 05:35:44;;;;;;;101.47;96.30;;;8.30;99.90;;;;;;12462162;28;20058;-87
2024/02/22 05:41:47;;;;;;;96.90;91.80;;;8.30;99.90;;;;;;12470708;28;20057;-86
2024/02/22 05:47:49;;;;;;;95.40;90.55;;;8.30;99.90;;;;;;12482759;28;20049;-85
2024/02/22 05:53:51;;;;;;;95.40;90.50;;;8.30;99.90;;;;;;12523629;28;20053;-87
2024/02/22 05:59:53;;;;;;;101.25;96.15;;;8.30;99.90;;;;;;12534233;28;20039;-88
2024/02/22 06:05:56;;;;;;;97.90;92.90;;;8.40;99.90;;;;;;12494410;28;20072;-87
2024/02/22 06:11:58;;;;;;;96.57;91.37;;;8.40;99.90;;;;;;12471509;28;20049;-85
2024/02/22 06:18:01;;;;;;;100.05;94.60;;;8.40;99.90;;;;;;12484964;28;20140;-86
2024/02/22 06:24:03;;;;;;;106.35;100.35;;;8.50;99.90;;;;;;12467780;28;20572;-86
2024/02/22 06:30:06;;;;;;;115.28;108.57;;;8.50;99.90;;;;;;12469721;28;20410;-86
2024/02/22 06:36:09;;;;;;;111.82;105.07;;;8.40;99.90;;;;;;12470350;28;20050;-87
2024/02/22 06:42:12;;;;;;;116.43;109.67;;;8.50;99.90;;;;;;12462925;28;20065;-85
2024/02/22 06:48:14;;;;;;;119.20;112.15;;;8.50;99.90;;;;;;12478207;28;20057;-88
2024/02/22 06:54:16;;;;;;;116.75;109.80;;;8.50;99.90;;;;;;12467523;28;20055;-88
2024/02/22 07:00:18;;;;;;;114.13;106.85;;;8.60;99.90;;;;;;12464603;28;20054;-86
2024/02/22 07:06:21;;;;;;;117.70;110.53;;;8.60;99.90;;;;;;12461531;28;20068;-85
2024/02/22 07:12:23;;;;;;;118.97;111.60;;;8.70;99.90;;;;;;12471292;28;20612;-86
2024/02/22 07:18:26;;;;;;;124.63;117.03;;;8.60;99.90;;;;;;12471100;28;20059;-85
2024/02/22 07:24:28;;;;;;;123.32;116.05;;;8.70;99.90;;;;;;12472401;28;20057;-87
2024/02/22 07:30:30;;;;;;;121.53;114.68;;;8.70;99.90;;;;;;12477517;28;20144;-86
2024/02/22 07:36:32;;;;;;;131.77;124.47;;;8.70;99.90;;;;;;12487691;28;20057;-85
2024/02/22 07:42:34;;;;;;;135.77;128.30;;;8.80;99.90;;;;;;12479374;28;20049;-86
2024/02/22 07:48:40;;;;;;;132.25;124.93;;;8.70;99.90;;;;;;12474672;28;20120;-85
2024/02/22 07:54:46;;;;;;;125.93;118.97;;;8.70;99.90;;;;;;12490647;28;20111;-86
2024/02/22 08:00:49;;;;;;;128.45;121.50;;;8.70;99.90;;;;;;12472240;28;20441;-86
2024/02/22 08:06:50;;;;;;;129.18;121.85;;;8.80;99.90;;;;;;12485873;28;20449;-86
2024/02/22 08:12:53;;;;;;;128.23;121.22;;;8.90;99.90;;;;;;12462263;28;20122;-85
2024/02/22 08:18:55;;;;;;;124.53;117.82;;;8.90;99.90;;;;;;12473877;28;20053;-87
2024/02/22 08:24:57;;;;;;;125.95;119.05;;;8.90;99.90;;;;;;12474710;28;20423;-85
2024/02/22 08:30:59;;;;;;;121.80;115.25;;;9.00;99.90;;;;;;12469380;28;20045;-86
2024/02/22 08:37:01;;;;;;;129.38;122.13;;;9.10;99.90;;;;;;12460534;28;20057;-87
2024/02/22 08:43:03;;;;;;;143.82;136.02;;;9.40;99.90;;;;;;12475028;28;20487;-87
2024/02/22 08:49:06;;;;;;;159.88;151.07;;;9.50;99.90;;;;;;12475805;28;20041;-86
2024/02/22 08:55:10;;;;;;;151.65;143.45;;;9.50;99.90;;;;;;12472037;28;20054;-87
2024/02/22 09:01:12;;;;;;;158.17;149.57;;;9.50;99.90;;;;;;12467182;28;20058;-85
2024/02/22 09:07:14;;;;;;;155.45;146.85;;;9.60;99.90;;;;;;12475624;28;20434;-86
2024/02/22 09:13:16;;;;;;;155.35;147.10;;;9.60;99.90;;;;;;12476090;28;20494;-86
2024/02/22 09:19:18;;;;;;;161.27;152.68;;;9.50;99.90;;;;;;12457436;28;20077;-86
2024/02/22 09:25:20;;;;;;;164.93;156.10;;;9.50;99.90;;;;;;12465647;28;20050;-85
2024/02/22 09:31:22;;;;;;;162.82;154.07;;;9.60;99.90;;;;;;12467243;28;20085;-85
2024/02/22 09:37:26;;;;;;;159.73;151.25;;;9.60;99.90;;;;;;12459084;28;20053;-85
2024/02/22 09:43:29;;;;;;;157.70;149.32;;;9.60;99.90;;;;;;12477745;28;20041;-87
2024/02/22 09:49:34;;;;;;;171.57;162.27;;;9.80;99.90;;;;;;12454685;28;20045;-87
2024/02/22 09:55:36;;;;;;;167.02;158.02;;;9.80;99.90;;;;;;12474549;28;20065;-87
2024/02/22 10:01:40;;;;;;;181.88;172.00;;;10.00;99.90;;;;;;12468585;28;20064;-87
2024/02/22 10:07:43;;;;;;;185.73;175.35;;;10.20;99.90;;;;;;12469523;28;20128;-86
2024/02/22 10:13:45;;;;;;;188.47;178.10;;;10.40;99.90;;;;;;12478687;28;20102;-85
2024/02/22 10:19:58;;;;;;;212.00;200.23;;;10.50;99.90;;;;;;12472018;28;20140;-86
2024/02/22 10:26:04;;;;;;;222.43;210.20;;;10.70;99.90;;;;;;12471761;28;20049;-87
2024/02/22 10:32:07;;;;;;;226.43;213.57;;;10.80;99.90;;;;;;12487925;28;20053;-86
2024/02/22 10:38:09;;;;;;;202.98;191.27;;;10.90;99.90;;;;;;12466367;28;20050;-87
2024/02/22 10:44:11;;;;;;;189.65;178.77;;;10.80;99.90;;;;;;12474309;28;20102;-87
2024/02/22 10:50:23;;;;;;;199.88;188.45;;;11.00;99.90;;;;;;12471594;28;20514;-86
2024/02/22 10:56:27;;;;;;;204.80;193.23;;;11.10;99.90;;;;;;12471927;28;20045;-86
2024/02/22 11:02:30;;;;;;;;;;;11.10;99.90;;;;;;12468160;28;20045;-89
2024/02/22 11:08:32;;;;;;;196.35;185.43;;;11.20;99.90;;;;;;12478375;28;19970;-84
2024/02/22 11:14:37;;;;;;;182.40;172.30;;;11.10;99.90;;;;;;12470368;28;20052;-86
2024/02/22 11:20:39;;;;;;;184.98;174.65;;;11.10;99.90;;;;;;12480147;28;20045;-86
2024/02/22 11:26:41;;;;;;;190.13;179.65;;;11.30;99.90;;;;;;12497700;28;20065;-89
2024/02/22 11:32:48;;;;;;;179.07;169.38;;;11.40;99.90;;;;;;12480049;28;20107;-86
2024/02/22 11:39:01;;;;;;;179.50;169.85;;;11.40;99.90;;;;;;12480604;28;20045;-86
2024/02/22 11:45:13;;;;;;;168.48;159.55;;;11.40;99.90;;;;;;12501558;28;20125;-85
2024/02/22 11:51:15;;;;;;;172.45;163.38;;;11.40;99.90;;;;;;12483290;28;20042;-87
2024/02/22 11:57:17;;;;;;;161.18;152.95;;;11.50;99.90;;;;;;12476151;28;20052;-86
2024/02/22 12:03:19;;;;;;;174.50;165.57;;;11.40;99.90;;;;;;12478156;28;20049;-87
2024/02/22 12:09:21;;;;;;;165.70;157.15;;;11.40;99.90;;;;;;12481111;28;20041;-88
2024/02/22 12:15:25;;;;;;;153.10;145.40;;;11.40;99.90;;;;;;12468515;28;20085;-87
2024/02/22 12:21:29;;;;;;;150.50;143.00;;;11.40;99.90;;;;;;12486527;28;20081;-88
2024/02/22 12:27:31;;;;;;;149.27;141.82;;;11.30;99.90;;;;;;12495080;28;20130;-88
2024/02/22 12:33:34;;;;;;;135.82;129.18;;;11.30;99.90;;;;;;12489449;28;20049;-88
2024/02/22 12:39:37;;;;;;;136.25;129.55;;;11.10;99.90;;;;;;12484713;28;20046;-87
2024/02/22 12:45:40;;;;;;;119.13;113.43;;;11.10;99.90;;;;;;12494285;28;20054;-86
2024/02/22 12:51:48;;;;;;;114.82;109.32;;;11.20;99.90;;;;;;12500652;28;20049;-86
2024/02/22 12:57:51;;;;;;;122.20;116.35;;;11.40;99.90;;;;;;12482582;28;20404;-88
2024/02/22 13:03:54;;;;;;;119.63;113.93;;;11.40;99.90;;;;;;12496666;28;20491;-88
2024/02/22 13:09:56;;;;;;;110.78;105.47;;;11.50;99.90;;;;;;12481519;28;20073;-88
2024/02/22 13:16:01;;;;;;;112.90;107.53;;;11.50;99.90;;;;;;12483371;28;20501;-87
2024/02/22 13:22:04;;;;;;;117.28;111.65;;;11.70;99.90;;;;;;12474307;28;20196;-89
2024/02/22 13:28:06;;;;;;;106.75;101.60;;;11.70;99.90;;;;;;12470974;28;20045;-87
2024/02/22 13:34:08;;;;;;;109.82;104.55;;;11.60;99.90;;;;;;12464923;28;20057;-87
2024/02/22 13:40:11;;;;;;;110.28;105.03;;;11.60;99.90;;;;;;12474188;28;20049;-88
2024/02/22 13:46:18;;;;;;;120.32;114.53;;;11.80;99.90;;;;;;12469609;28;20448;-88
2024/02/22 13:52:20;;;;;;;107.07;101.88;;;11.90;99.90;;;;;;12464649;28;20050;-86
2024/02/22 13:58:23;;;;;;;96.72;92.03;;;11.70;99.90;;;;;;12478495;28;20062;-87
2024/02/22 14:04:25;;;;;;;98.25;93.35;;;11.70;99.90;;;;;;12487173;28;20490;-87
2024/02/22 14:10:30;;;;;;;;;;;11.60;99.90;;;;;;12496146;28;20049;-88
2024/02/22 14:16:32;;;;;;;111.03;105.22;;;11.50;99.90;;;;;;12467593;28;19935;-90
2024/02/22 14:22:34;;;;;;;109.85;104.05;;;11.30;99.90;;;;;;12479724;28;20046;-87
2024/02/22 14:28:36;;;;;;;109.85;104.32;;;11.10;99.90;;;;;;12472650;28;20077;-88
2024/02/22 14:34:40;;;;;;;105.18;99.97;;;11.00;99.90;;;;;;12498161;28;20080;-88
2024/02/22 14:40:43;;;;;;;95.03;90.30;;;11.10;99.90;;;;;;12493816;28;20126;-88
2024/02/22 14:46:45;;;;;;;93.72;89.03;;;11.00;99.90;;;;;;12496986;28;20068;-87
2024/02/22 14:52:47;;;;;;;95.38;90.47;;;11.00;99.90;;;;;;12505833;28;20059;-87
2024/02/22 14:58:49;;;;;;;85.07;80.85;;;11.10;99.90;;;;;;12506100;28;20061;-88
2024/02/22 15:04:53;;;;;;;90.40;85.93;;;11.20;99.90;;;;;;12472304;28;20077;-89
2024/02/22 15:10:56;;;;;;;94.20;89.50;;;11.30;99.90;;;;;;12497679;28;20124;-86
2024/02/22 15:16:58;;;;;;;96.95;92.05;;;11.30;99.90;;;;;;12496112;28;20553;-88
2024/02/22 15:23:00;;;;;;;108.40;102.70;;;11.10;99.90;;;;;;12480828;28;20033;-89
2024/02/22 15:29:02;;;;;;;96.20;91.00;;;11.10;99.90;;;;;;12493801;28;20429;-88
2024/02/22 15:35:05;;;;;;;91.45;86.85;;;11.00;99.90;;;;;;12485903;28;20049;-89
2024/02/22 15:41:07;;;;;;;95.43;90.50;;;10.90;99.90;;;;;;12486423;28;20609;-89
2024/02/22 15:47:09;;;;;;;90.13;85.47;;;11.00;99.90;;;;;;12484523;28;20073;-90
2024/02/22 15:53:15;;;;;;;101.55;96.25;;;11.00;99.90;;;;;;12508570;28;20072;-88
2024/02/22 15:59:17;;;;;;;92.57;87.78;;;11.00;99.90;;;;;;12488769;28;20073;-88
2024/02/22 16:05:20;;;;;;;94.43;89.43;;;11.10;99.90;;;;;;12495582;28;20076;-88
2024/02/22 16:11:22;;;;;;;90.60;85.90;;;11.10;99.90;;;;;;12487583;28;20053;-87
2024/02/22 16:17:24;;;;;;;91.68;86.88;;;11.20;99.90;;;;;;12491474;28;20037;-87
2024/02/22 16:23:30;;;;;;;95.30;90.40;;;11.30;99.90;;;;;;12488245;28;20474;-86
2024/02/22 16:29:32;;;;;;;99.78;94.50;;;11.30;99.90;;;;;;12480084;28;20057;-87
2024/02/22 16:35:39;;;;;;;96.93;91.78;;;11.20;99.90;;;;;;12484116;28;20065;-87
2024/02/22 16:41:41;;;;;;;98.60;93.30;;;11.20;99.90;;;;;;12487116;28;20034;-88
2024/02/22 16:47:44;;;;;;;99.15;93.85;;;11.30;99.90;;;;;;12495113;28;20118;-87
2024/02/22 16:53:48;;;;;;;100.67;95.27;;;11.30;99.90;;;;;;12513351;28;20061;-87
2024/02/22 16:59:50;;;;;;;99.22;94.03;;;11.30;99.90;;;;;;12515128;28;20684;-86
2024/02/22 17:05:52;;;;;;;103.80;98.28;;;11.30;99.90;;;;;;12490996;28;20184;-88
2024/02/22 17:11:55;;;;;;;106.40;100.78;;;11.40;99.90;;;;;;12496999;28;20045;-87
2024/02/22 17:17:58;;;;;;;104.95;99.40;;;11.40;99.90;;;;;;12493855;28;20051;-86
2024/02/22 17:24:00;;;;;;;103.43;98.03;;;11.40;99.90;;;;;;12484363;28;20101;-88
2024/02/22 17:30:02;;;;;;;100.65;95.38;;;11.50;99.90;;;;;;12485819;28;20060;-84
2024/02/22 17:36:05;;;;;;;96.03;91.00;;;11.40;99.90;;;;;;12498392;28;20060;-86
2024/02/22 17:42:06;;;;;;;95.80;90.78;;;11.40;99.90;;;;;;12499036;28;20109;-86
2024/02/22 17:48:08;;;;;;;95.57;90.53;;;11.40;99.90;;;;;;12450435;28;20049;-87
2024/02/22 17:54:10;;;;;;;95.28;90.20;;;11.40;99.90;;;;;;12462253;28;20228;-88
2024/02/22 18:00:13;;;;;;;90.13;85.43;;;11.20;99.90;;;;;;12477997;28;20061;-86
2024/02/22 18:06:17;;;;;;;88.88;84.30;;;11.10;99.90;;;;;;12455951;28;20410;-86
2024/02/22 18:12:23;;;;;;;89.97;85.32;;;11.10;99.90;;;;;;12470014;28;20041;-86
2024/02/22 18:18:25;;;;;;;92.60;87.60;;;11.10;99.90;;;;;;12462302;28;20520;-88
2024/02/22 18:24:27;;;;;;;89.68;84.97;;;11.10;99.90;;;;;;12483916;28;20062;-87
2024/02/22 18:30:34;;;;;;;90.90;86.10;;;11.10;99.90;;;;;;12480710;28;20046;-86
2024/02/22 18:36:36;;;;;;;90.53;85.72;;;11.10;99.90;;;;;;12484271;28;20128;-86
2024/02/22 18:42:39;;;;;;;89.72;84.93;;;11.00;99.90;;;;;;12470670;28;20521;-85
2024/02/22 18:48:41;;;;;;;85.38;80.88;;;11.00;99.90;;;;;;12473187;28;20060;-87
2024/02/22 18:54:44;;;;;;;89.30;84.63;;;11.10;99.90;;;;;;12476518;28;20111;-86
2024/02/22 19:00:46;;;;;;;90.70;85.80;;;11.20;99.90;;;;;;12492801;28;20065;-85
2024/02/22 19:06:55;;;;;;;89.03;84.32;;;11.20;99.90;;;;;;12470868;28;20136;-84
2024/02/22 19:12:57;;;;;;;83.95;79.55;;;11.10;99.90;;;;;;12472129;28;20049;-85
2024/02/22 19:19:00;;;;;;;85.57;81.07;;;11.10;99.90;;;;;;12464846;28;20045;-86
2024/02/22 19:25:03;;;;;;;92.27;87.40;;;11.00;99.90;;;;;;12479857;28;20089;-87
2024/02/22 19:31:05;;;;;;;88.38;83.78;;;11.10;99.90;;;;;;12478144;28;20054;-85
2024/02/22 19:37:07;;;;;;;93.25;88.35;;;11.10;99.90;;;;;;12513982;28;20041;-87
2024/02/22 19:43:10;;;;;;;89.03;84.35;;;11.20;99.90;;;;;;12487357;28;20041;-87
2024/02/22 19:49:12;;;;;;;92.75;87.85;;;11.30;99.90;;;;;;12467077;28;20449;-88
2024/02/22 19:55:15;;;;;;;95.35;90.35;;;11.30;99.90;;;;;;12474824;28;20054;-88
2024/02/22 20:01:17;;;;;;;98.97;93.82;;;11.30;99.90;;;;;;12478483;28;20068;-84
2024/02/22 20:07:22;;;;;;;97.60;92.50;;;11.40;99.90;;;;;;12489121;28;20050;-87
2024/02/22 20:13:25;;;;;;;100.82;95.68;;;11.40;99.90;;;;;;12485733;28;20054;-87
2024/02/22 20:19:27;;;;;;;101.63;96.53;;;11.50;99.90;;;;;;12466898;28;20080;-87
2024/02/22 20:25:29;;;;;;;106.30;101.00;;;11.60;99.90;;;;;;12455822;28;20057;-86
2024/02/22 20:31:31;;;;;;;109.45;104.00;;;11.70;99.90;;;;;;12439389;28;20061;-88
2024/02/22 20:37:33;;;;;;;109.03;103.65;;;11.90;99.90;;;;;;12460718;28;20054;-86
2024/02/22 20:43:35;;;;;;;113.25;107.65;;;12.00;99.90;;;;;;12454145;28;20049;-87
2024/02/22 20:49:37;;;;;;;106.13;100.85;;;12.00;99.90;;;;;;12494365;28;20053;-87
2024/02/22 21:02:16;;;;;;;109.40;104.20;;;10.20;99.90;;;;;;12469871;28;20064;-86
2024/02/22 21:08:26;;;;;;;106.80;101.75;;;9.70;99.90;;;;;;12473780;28;20045;-86
2024/02/22 21:14:28;;;;;;;101.85;97.05;;;9.70;99.90;;;;;;12450614;28;20050;-83
2024/02/22 21:20:30;;;;;;;103.60;98.68;;;9.60;99.90;;;;;;12470001;28;20050;-87
2024/02/22 21:26:32;;;;;;;95.18;90.63;;;9.50;99.90;;;;;;12492524;28;20069;-88
2024/02/22 21:32:36;;;;;;;95.72;91.13;;;9.40;99.90;;;;;;12471173;28;20129;-86
2024/02/22 21:38:38;;;;;;;98.18;93.13;;;9.50;99.90;;;;;;12510777;28;20049;-87
2024/02/22 21:44:41;;;;;;;96.95;92.35;;;9.40;99.90;;;;;;12482464;28;20038;-86
2024/02/22 21:50:44;;;;;;;90.15;85.75;;;9.40;99.90;;;;;;12481957;28;20060;-87
2024/02/22 21:56:46;;;;;;;90.22;85.95;;;9.30;99.90;;;;;;12456443;28;20545;-84
2024/02/22 22:02:53;;;;;;;92.93;88.57;;;9.20;99.90;;;;;;12424733;28;20089;-87
2024/02/22 22:08:55;;;;;;;101.55;96.75;;;9.20;99.90;;;;;;12429755;28;20050;-87
2024/02/22 22:14:58;;;;;;;92.60;88.10;;;9.00;99.90;;;;;;12435119;28;20057;-86
2024/02/22 22:21:00;;;;;;;89.93;85.32;;;8.90;99.90;;;;;;12435934;28;20046;-85
2024/02/22 22:27:02;;;;;;;85.82;81.47;;;9.00;99.90;;;;;;12424653;28;20482;-85
2024/02/22 22:33:04;;;;;;;83.78;79.80;;;8.90;99.90;;;;;;12417103;28;20061;-85
2024/02/22 22:39:11;;;;;;;81.70;77.50;;;8.90;99.90;;;;;;12428132;28;20053;-87
2024/02/22 22:45:15;;;;;;;83.00;78.80;;;8.90;99.90;;;;;;12416274;28;20077;-84
2024/02/22 22:51:17;;;;;;;77.35;73.57;;;8.70;99.90;;;;;;12429476;28;20054;-85
2024/02/22 22:57:20;;;;;;;69.22;65.53;;;8.70;99.90;;;;;;12452350;28;20432;-88
2024/02/22 23:03:22;;;;;;;65.23;61.80;;;8.70;99.90;;;;;;12444771;28;20072;-85
2024/02/22 23:09:25;;;;;;;61.90;58.47;;;8.60;99.90;;;;;;12460926;28;20049;-86
2024/02/22 23:15:27;;;;;;;58.45;55.55;;;8.60;80.20;;;;;;12431607;28;20054;-85
2024/02/22 23:21:36;;;;;;;54.22;51.35;;;8.50;65.90;;;;;;12454968;28;20057;-84
2024/02/22 23:27:38;;;;;;;54.90;51.90;;;8.40;50.10;;;;;;12453402;28;20414;-86
2024/02/22 23:33:40;;;;;;;51.30;48.45;;;8.40;51.60;;;;;;12443807;28;20053;-86
2024/02/22 23:39:42;;;;;;;53.67;50.88;;;8.40;29.70;;;;;;12442195;28;20097;-86
2024/02/22 23:45:47;;;;;;;54.65;51.72;;;8.30;43.10;;;;;;12432728;28;20046;-84
2024/02/22 23:51:49;;;;;;;57.65;54.67;;;8.30;36.20;;;;;;12436943;28;20476;-85
2024/02/22 23:57:51;;;;;;;53.72;50.83;;;8.30;57.70;;;;;;12448226;28;20054;-86
